CMB857 Details

Departure: Naval Station Rota (LERT)
Arrival: Bahrain International Airport (OBBI)
Route: MGA2Z MGA A44 AMR A44 MOS A411 ALR A31 BNA J9 BTN J10 TBS P128 TANLI V300 ZAW WLD G659 GS UM999 NAKDO M999 LXR UL604 KFA M691 LADNA LADNA1
Notes: USTRANSCOM CONTRACT FLIGHT


Current Weather Information
LERT 221100Z 09012KT 060V130 9999 FEW030 19/06 Q1023 NOSIG
OBBI 221130Z 07011KT CAVOK 23/17 Q1012 NOSIG